Time,TemperatureF,DewpointF,PressureIn,WindDirection,WindDirectionDegrees,WindSpeedMPH,WindSpeedGustMPH,Humidity,HourlyPrecipIn,Conditions,Clouds,dailyrainin,SoftwareType,DateUTC
2013-04-26 00:00:00,71.4,50.7,30.14,NE,55,0.0,17.0,48,0.00,CLR,,0.00,WeatherDisplay:10.37,2013-04-25 22:00:00,
2013-04-26 00:15:00,69.3,51.9,30.15,West,264,3.0,10.0,54,0.00,CLR,,0.00,WeatherDisplay:10.37,2013-04-25 22:15:00,
2013-04-26 00:30:00,69.5,51.6,30.15,West,276,2.0,10.0,53,0.00,CLR,,0.00,WeatherDisplay:10.37,2013-04-25 22:30:00,
2013-04-26 00:45:00,69.3,51.4,30.15,WNW,285,1.0,7.0,53,0.00,CLR,,0.00,WeatherDisplay:10.37,2013-04-25 22:45:00,
2013-04-26 01:00:00,69.2,51.3,30.15,WNW,286,0.0,4.0,53,0.00,CLR,,0.00,WeatherDisplay:10.37,2013-04-25 23:00:00,
2013-04-26 01:15:00,68.8,51.5,30.15,WNW,286,0.0,1.0,54,0.00,CLR,,0.00,WeatherDisplay:10.37,2013-04-25 23:15:00,
2013-04-26 01:30:00,69.2,51.3,30.14,WNW,289,1.0,2.0,53,0.00,CLR,,0.00,WeatherDisplay:10.37,2013-04-25 23:30:00,
2013-04-26 01:45:00,68.8,51.5,30.14,NNE,26,5.0,6.0,54,0.00,CLR,,0.00,WeatherDisplay:10.37,2013-04-25 23:45:00,
2013-04-26 02:00:00,68.0,51.7,30.13,SE,132,2.0,8.0,56,0.00,CLR,,0.00,WeatherDisplay:10.37,2013-04-26 00:00:00,
2013-04-26 02:15:00,68.3,51.0,30.13,SE,132,3.0,10.0,54,0.00,CLR,,0.00,WeatherDisplay:10.37,2013-04-26 00:15:00,
2013-04-26 02:30:00,68.7,50.9,30.13,ENE,62,2.0,10.0,53,0.00,CLR,,0.00,WeatherDisplay:10.37,2013-04-26 00:30:00,
2013-04-26 02:45:00,68.7,50.4,30.12,ENE,67,6.0,10.0,52,0.00,CLR,,0.00,WeatherDisplay:10.37,2013-04-26 00:45:00,
2013-04-26 03:00:00,68.3,50.5,30.12,East,79,3.0,10.0,53,0.00,CLR,,0.00,WeatherDisplay:10.37,2013-04-26 01:00:00,
2013-04-26 03:15:00,67.7,50.5,30.12,SE,126,0.0,10.0,54,0.00,CLR,,0.00,WeatherDisplay:10.37,2013-04-26 01:15:00,
2013-04-26 03:30:00,67.5,50.8,30.12,SE,126,0.0,10.0,55,0.00,CLR,,0.00,WeatherDisplay:10.37,2013-04-26 01:30:00,
2013-04-26 03:45:00,67.8,50.5,30.12,SE,126,1.0,10.0,54,0.00,CLR,,0.00,WeatherDisplay:10.37,2013-04-26 01:45:00,
2013-04-26 04:00:00,66.7,50.5,30.12,SE,126,0.0,10.0,56,0.00,CLR,,0.00,WeatherDisplay:10.37,2013-04-26 02:00:00,
2013-04-26 04:15:00,66.2,51.0,30.12,SSE,166,5.0,10.0,58,0.00,CLR,,0.00,WeatherDisplay:10.37,2013-04-26 02:15:00,
2013-04-26 04:30:00,65.9,51.2,30.12,WNW,284,1.0,10.0,59,0.00,CLR,,0.00,WeatherDisplay:10.37,2013-04-26 02:30:00,
2013-04-26 04:45:00,65.9,50.7,30.12,WNW,285,3.0,10.0,58,0.00,CLR,,0.00,WeatherDisplay:10.37,2013-04-26 02:45:00,
2013-04-26 05:00:00,65.7,50.5,30.11,WNW,286,1.0,10.0,58,0.00,CLR,,0.00,WeatherDisplay:10.37,2013-04-26 03:00:00,
2013-04-26 05:15:00,66.1,49.5,30.11,WNW,286,5.0,10.0,55,0.00,CLR,,0.00,WeatherDisplay:10.37,2013-04-26 03:15:00,
2013-04-26 05:30:00,65.9,49.3,30.11,WNW,283,3.0,10.0,55,0.00,CLR,,0.00,WeatherDisplay:10.37,2013-04-26 03:30:00,
2013-04-26 05:45:00,66.0,48.9,30.10,West,278,0.0,10.0,54,0.00,CLR,,0.00,WeatherDisplay:10.37,2013-04-26 03:45:00,
2013-04-26 06:00:00,66.3,48.7,30.10,West,278,0.0,10.0,53,0.00,CLR,,0.00,WeatherDisplay:10.37,2013-04-26 04:00:00,
2013-04-26 06:15:00,66.7,49.0,30.10,West,278,1.0,10.0,53,0.00,CLR,,0.00,WeatherDisplay:10.37,2013-04-26 04:15:00,
2013-04-26 06:30:00,66.0,48.9,30.10,West,273,2.0,10.0,54,0.00,CLR,,0.00,WeatherDisplay:10.37,2013-04-26 04:30:00,
2013-04-26 06:45:00,66.2,48.6,30.11,West,273,2.0,10.0,53,0.00,CLR,,0.00,WeatherDisplay:10.37,2013-04-26 04:45:00,
2013-04-26 07:00:00,66.7,48.5,30.11,West,273,0.0,10.0,52,0.00,CLR,,0.00,WeatherDisplay:10.37,2013-04-26 05:00:00,
2013-04-26 07:15:00,67.0,48.8,30.10,West,273,0.0,10.0,52,0.00,CLR,,0.00,WeatherDisplay:10.37,2013-04-26 05:15:00,
2013-04-26 07:30:00,66.8,49.1,30.10,West,272,0.0,10.0,53,0.00,CLR,,0.00,WeatherDisplay:10.37,2013-04-26 05:30:00,
2013-04-26 07:45:00,67.2,47.9,30.10,West,272,0.0,10.0,50,0.00,CLR,,0.00,WeatherDisplay:10.37,2013-04-26 05:45:00,
2013-04-26 08:00:00,68.3,47.3,30.10,West,272,0.0,10.0,47,0.00,CLR,,0.00,WeatherDisplay:10.37,2013-04-26 06:00:00,
2013-04-26 08:15:00,69.2,46.9,30.10,West,272,0.0,10.0,45,0.00,CLR,,0.00,WeatherDisplay:10.37,2013-04-26 06:15:00,
2013-04-26 08:30:00,70.2,43.4,30.09,West,270,1.0,10.0,38,0.00,CLR,,0.00,WeatherDisplay:10.37,2013-04-26 06:30:00,
2013-04-26 08:45:00,69.7,42.3,30.09,West,268,2.0,10.0,37,0.00,CLR,,0.00,WeatherDisplay:10.37,2013-04-26 06:45:00,
2013-04-26 09:00:00,70.2,43.4,30.09,West,268,0.0,10.0,38,0.00,CLR,,0.00,WeatherDisplay:10.37,2013-04-26 07:00:00,
2013-04-26 09:15:00,71.4,46.5,30.10,WSW,256,0.0,10.0,41,0.00,CLR,,0.00,WeatherDisplay:10.37,2013-04-26 07:15:00,
2013-04-26 09:30:00,71.6,46.0,30.09,WSW,249,0.0,10.0,40,0.00,CLR,,0.00,WeatherDisplay:10.37,2013-04-26 07:30:00,
2013-04-26 09:45:00,71.5,42.4,30.10,WSW,249,1.0,10.0,35,0.00,CLR,,0.00,WeatherDisplay:10.37,2013-04-26 07:45:00,
2013-04-26 10:00:00,71.7,44.0,30.10,WSW,253,2.0,10.0,37,0.00,CLR,,0.00,WeatherDisplay:10.37,2013-04-26 08:00:00,
2013-04-26 10:15:00,72.9,42.1,30.09,WNW,292,0.0,10.0,33,0.00,CLR,,0.00,WeatherDisplay:10.37,2013-04-26 08:15:00,
2013-04-26 10:30:00,75.3,37.0,30.09,West,279,1.0,10.0,25,0.00,CLR,,0.00,WeatherDisplay:10.37,2013-04-26 08:30:00,
2013-04-26 10:45:00,73.5,42.7,30.09,West,277,5.0,10.0,33,0.00,CLR,,0.00,WeatherDisplay:10.37,2013-04-26 08:45:00,
2013-04-26 11:00:00,73.1,42.3,30.09,West,262,2.0,10.0,33,0.00,CLR,,0.00,WeatherDisplay:10.37,2013-04-26 09:00:00,
2013-04-26 11:15:00,72.2,42.3,30.09,West,265,8.0,15.0,34,0.00,CLR,,0.00,WeatherDisplay:10.37,2013-04-26 09:15:00,
2013-04-26 11:30:00,70.5,45.7,30.09,West,273,12.0,15.0,41,0.00,CLR,,0.00,WeatherDisplay:10.37,2013-04-26 09:30:00,
2013-04-26 11:45:00,69.8,46.3,30.09,West,268,3.0,15.0,43,0.00,CLR,,0.00,WeatherDisplay:10.37,2013-04-26 09:45:00,
2013-04-26 12:00:00,70.3,41.3,30.09,West,262,7.0,15.0,35,0.00,CLR,,0.00,WeatherDisplay:10.37,2013-04-26 10:00:00,
2013-04-26 12:15:00,69.8,44.4,30.08,West,265,8.0,18.0,40,0.00,CLR,,0.00,WeatherDisplay:10.37,2013-04-26 10:15:00,
2013-04-26 12:30:00,69.6,44.2,30.08,WSW,249,12.0,17.0,40,0.00,CLR,,0.00,WeatherDisplay:10.37,2013-04-26 10:30:00,
2013-04-26 12:45:00,69.7,39.3,30.07,West,264,9.0,16.0,33,0.00,CLR,,0.00,WeatherDisplay:10.37,2013-04-26 10:45:00,
2013-04-26 13:00:00,69.8,40.2,30.07,West,264,8.0,16.0,34,0.00,CLR,,0.00,WeatherDisplay:10.37,2013-04-26 11:00:00,
2013-04-26 13:15:00,69.5,41.4,30.06,West,262,10.0,16.0,36,0.00,CLR,,0.00,WeatherDisplay:10.37,2013-04-26 11:15:00,
2013-04-26 13:30:00,69.0,43.7,30.06,West,261,7.0,17.0,40,0.00,CLR,,0.00,WeatherDisplay:10.37,2013-04-26 11:30:00,
2013-04-26 13:45:00,69.2,41.8,30.06,West,264,8.0,15.0,37,0.00,CLR,,0.00,WeatherDisplay:10.37,2013-04-26 11:45:00,
2013-04-26 14:00:00,69.3,41.9,30.05,West,264,8.0,18.0,37,0.00,CLR,,0.00,WeatherDisplay:10.37,2013-04-26 12:00:00,
2013-04-26 14:15:00,68.8,44.8,30.05,West,265,9.0,15.0,42,0.00,CLR,,0.00,WeatherDisplay:10.37,2013-04-26 12:15:00,
2013-04-26 14:30:00,67.7,44.4,30.04,West,266,5.0,17.0,43,0.00,CLR,,0.00,WeatherDisplay:10.37,2013-04-26 12:30:00,
2013-04-26 14:45:00,69.0,37.9,30.03,West,264,10.0,20.0,32,0.00,CLR,,0.00,WeatherDisplay:10.37,2013-04-26 12:45:00,
2013-04-26 15:00:00,69.0,37.9,30.03,West,269,9.0,20.0,32,0.00,CLR,,0.00,WeatherDisplay:10.37,2013-04-26 13:00:00,
2013-04-26 15:15:00,69.8,38.6,30.04,West,271,13.0,21.0,32,0.00,CLR,,0.00,WeatherDisplay:10.37,2013-04-26 13:15:00,
2013-04-26 15:30:00,68.3,42.4,30.03,West,265,12.0,25.0,39,0.00,CLR,,0.00,WeatherDisplay:10.37,2013-04-26 13:30:00,
2013-04-26 15:45:00,69.7,39.3,30.04,West,277,8.0,24.0,33,0.00,CLR,,0.00,WeatherDisplay:10.37,2013-04-26 13:45:00,
2013-04-26 16:00:00,69.7,38.5,30.05,NW,308,8.0,21.0,32,0.00,CLR,,0.00,WeatherDisplay:10.37,2013-04-26 14:00:00,
2013-04-26 16:15:00,68.8,41.4,30.05,WNW,301,8.0,17.0,37,0.00,CLR,,0.00,WeatherDisplay:10.37,2013-04-26 14:15:00,
2013-04-26 16:30:00,67.5,43.6,30.05,NW,304,8.0,17.0,42,0.00,CLR,,0.00,WeatherDisplay:10.37,2013-04-26 14:30:00,
2013-04-26 16:45:00,65.9,43.9,30.05,NW,310,9.0,20.0,45,0.00,CLR,,0.00,WeatherDisplay:10.37,2013-04-26 14:45:00,
2013-04-26 17:00:00,65.4,46.8,30.06,NW,319,6.0,16.0,51,0.00,CLR,,0.00,WeatherDisplay:10.37,2013-04-26 15:00:00,
2013-04-26 17:15:00,64.4,49.2,30.05,NNW,348,12.0,18.0,58,0.00,CLR,,0.00,WeatherDisplay:10.37,2013-04-26 15:15:00,
2013-04-26 17:30:00,64.1,46.1,30.05,North,1,6.0,17.0,52,0.00,CLR,,0.00,WeatherDisplay:10.37,2013-04-26 15:30:00,
2013-04-26 17:45:00,64.2,48.2,30.06,SW,216,3.0,5.0,56,0.01,RA,,0.01,WeatherDisplay:10.37,2013-04-26 15:45:00,
2013-04-26 18:00:00,64.0,47.5,30.06,WSW,239,0.0,7.0,55,0.00,CLR,,0.01,WeatherDisplay:10.37,2013-04-26 16:00:00,
2013-04-26 18:15:00,63.9,45.4,30.06,North,9,6.0,8.0,51,0.01,RA,,0.02,WeatherDisplay:10.37,2013-04-26 16:15:00,
2013-04-26 18:30:00,61.3,48.6,30.06,NNE,25,3.0,10.0,63,0.00,CLR,,0.02,WeatherDisplay:10.37,2013-04-26 16:30:00,
2013-04-26 18:45:00,61.5,47.0,30.06,NNE,18,3.0,9.0,59,0.00,CLR,,0.02,WeatherDisplay:10.37,2013-04-26 16:45:00,
2013-04-26 19:00:00,62.3,48.2,30.08,NW,318,2.0,8.0,60,0.00,CLR,,0.02,WeatherDisplay:10.37,2013-04-26 17:00:00,
2013-04-26 19:15:00,61.7,47.7,30.07,North,10,2.0,8.0,60,0.00,CLR,,0.02,WeatherDisplay:10.37,2013-04-26 17:15:00,
2013-04-26 19:30:00,63.0,45.1,30.07,NNE,29,2.0,8.0,52,0.00,CLR,,0.02,WeatherDisplay:10.37,2013-04-26 17:30:00,
2013-04-26 19:45:00,62.8,45.0,30.07,NE,44,1.0,4.0,52,0.00,CLR,,0.02,WeatherDisplay:10.37,2013-04-26 17:45:00,
2013-04-26 20:00:00,61.9,48.3,30.05,ESE,111,3.0,5.0,61,0.02,RA,,0.04,WeatherDisplay:10.37,2013-04-26 18:00:00,
2013-04-26 20:15:00,59.4,48.8,30.04,ESE,104,8.0,13.0,68,0.03,RA,,0.07,WeatherDisplay:10.37,2013-04-26 18:15:00,
2013-04-26 20:30:00,57.9,50.8,30.02,East,97,9.0,17.0,77,0.02,RA,,0.09,WeatherDisplay:10.37,2013-04-26 18:30:00,
2013-04-26 20:45:00,57.4,50.9,30.04,ENE,70,7.0,14.0,79,0.03,RA,,0.13,WeatherDisplay:10.37,2013-04-26 18:45:00,
2013-04-26 21:00:00,57.2,50.7,30.02,East,101,8.0,13.0,79,0.01,RA,,0.14,WeatherDisplay:10.37,2013-04-26 19:00:00,
2013-04-26 21:15:00,58.0,50.4,30.02,ESE,117,5.0,13.0,76,0.00,CLR,,0.14,WeatherDisplay:10.37,2013-04-26 19:15:00,
2013-04-26 21:30:00,58.2,51.0,30.03,ENE,59,8.0,12.0,77,0.00,CLR,,0.14,WeatherDisplay:10.37,2013-04-26 19:30:00,
2013-04-26 21:45:00,58.5,51.3,30.03,East,88,5.0,12.0,77,0.00,CLR,,0.14,WeatherDisplay:10.37,2013-04-26 19:45:00,
2013-04-26 22:00:00,58.5,51.3,30.03,SE,135,1.0,9.0,77,0.02,RA,,0.16,WeatherDisplay:10.37,2013-04-26 20:00:00,
2013-04-26 22:15:00,59.1,50.8,30.02,SSE,151,3.0,8.0,74,0.02,RA,,0.18,WeatherDisplay:10.37,2013-04-26 20:15:00,
2013-04-26 22:30:00,58.3,51.5,30.01,SE,145,1.0,7.0,78,0.04,RA,,0.22,WeatherDisplay:10.37,2013-04-26 20:30:00,
2013-04-26 22:45:00,58.2,51.7,30.00,ESE,106,3.0,7.0,79,0.01,RA,,0.23,WeatherDisplay:10.37,2013-04-26 20:45:00,
2013-04-26 23:00:00,58.0,51.5,30.01,ENE,64,0.0,7.0,79,0.00,CLR,,0.23,WeatherDisplay:10.37,2013-04-26 21:00:00,
2013-04-26 23:15:00,59.4,50.7,30.00,South,185,6.0,8.0,73,0.00,CLR,,0.23,WeatherDisplay:10.37,2013-04-26 21:15:00,
2013-04-26 23:30:00,59.4,51.1,29.99,South,179,3.0,6.0,74,0.00,CLR,,0.23,WeatherDisplay:10.37,2013-04-26 21:30:00,
2013-04-26 23:45:00,58.5,51.0,29.98,South,171,3.0,5.0,76,0.00,CLR,,0.23,WeatherDisplay:10.37,2013-04-26 21:45:00,